createdAt,value
2017-04-13T00:00:22.682Z,10.58
2017-04-13T00:01:24.111Z,10.59
2017-04-13T00:02:25.541Z,10.53
2017-04-13T00:03:26.961Z,10.59
2017-04-13T00:04:28.391Z,10.46
2017-04-13T00:05:29.813Z,10.55
2017-04-13T00:06:31.240Z,10.59
2017-04-13T00:07:32.674Z,10.53
2017-04-13T00:08:34.104Z,10.55
2017-04-13T00:09:35.539Z,10.68
2017-04-13T00:10:36.959Z,10.66
2017-04-13T00:11:38.392Z,10.65
2017-04-13T00:12:39.812Z,10.63
2017-04-13T00:13:41.245Z,10.65
2017-04-13T00:14:42.671Z,10.71
2017-04-13T00:15:44.109Z,10.74
2017-04-13T00:16:45.532Z,10.65
2017-04-13T00:17:46.960Z,10.68
2017-04-13T00:18:48.390Z,10.76
2017-04-13T00:19:49.814Z,10.81
2017-04-13T00:20:51.243Z,10.66
2017-04-13T00:21:52.673Z,10.68
2017-04-13T00:22:54.098Z,10.63
2017-04-13T00:23:55.531Z,10.73
2017-04-13T00:24:56.962Z,10.78
2017-04-13T00:25:58.391Z,10.53
2017-04-13T00:26:59.818Z,10.63
2017-04-13T00:28:01.241Z,10.58
2017-04-13T00:29:02.670Z,10.47
2017-04-13T00:30:04.092Z,10.51
2017-04-13T00:31:05.515Z,10.55
2017-04-13T00:32:06.944Z,10.65
2017-04-13T00:33:08.368Z,10.68
2017-04-13T00:34:09.796Z,10.74
2017-04-13T00:35:11.219Z,10.63
2017-04-13T00:36:12.640Z,10.68
2017-04-13T00:37:14.062Z,10.53
2017-04-13T00:38:15.490Z,10.66
2017-04-13T00:39:16.924Z,10.56
2017-04-13T00:40:18.350Z,10.55
2017-04-13T00:41:19.777Z,10.66
2017-04-13T00:42:21.203Z,10.68
2017-04-13T00:43:22.632Z,10.60
2017-04-13T00:44:24.051Z,10.65
2017-04-13T00:45:25.487Z,10.68
2017-04-13T00:46:26.910Z,10.66
2017-04-13T00:47:28.343Z,10.78
2017-04-13T00:48:29.774Z,10.71
2017-04-13T00:49:31.192Z,10.78
2017-04-13T00:50:32.621Z,10.77
2017-04-13T00:51:34.044Z,10.60
2017-04-13T00:52:35.469Z,10.70
2017-04-13T00:53:36.902Z,10.65
2017-04-13T00:54:38.325Z,10.65
2017-04-13T00:55:39.759Z,10.70
2017-04-13T00:56:41.180Z,10.83
2017-04-13T00:57:42.603Z,10.71
2017-04-13T00:58:44.029Z,10.71
2017-04-13T00:59:45.454Z,10.74
2017-04-13T01:00:46.882Z,10.91
2017-04-13T01:01:48.296Z,10.81
2017-04-13T01:02:49.720Z,10.73
2017-04-13T01:03:51.153Z,10.59
2017-04-13T01:04:52.583Z,10.66
2017-04-13T01:05:54.010Z,10.65
2017-04-13T01:06:55.435Z,10.60
2017-04-13T01:07:56.864Z,10.78
2017-04-13T01:08:58.289Z,10.84
2017-04-13T01:09:59.720Z,10.89
2017-04-13T01:11:01.157Z,10.80
2017-04-13T01:12:02.580Z,10.80
2017-04-13T01:13:04.015Z,10.81
2017-04-13T01:14:05.438Z,10.77
2017-04-13T01:15:06.874Z,10.94
2017-04-13T01:16:08.296Z,10.74
2017-04-13T01:17:09.725Z,10.80
2017-04-13T01:18:11.154Z,10.76
2017-04-13T01:19:12.590Z,10.73
2017-04-13T01:20:14.015Z,10.81
2017-04-13T01:21:15.443Z,10.95
2017-04-13T01:22:16.872Z,10.70
2017-04-13T01:23:18.296Z,10.78
2017-04-13T01:24:19.724Z,10.83
2017-04-13T01:25:21.155Z,10.78
2017-04-13T01:26:22.638Z,10.74
2017-04-13T01:27:24.101Z,10.84
2017-04-13T01:28:25.490Z,10.91
2017-04-13T01:29:26.920Z,10.76
2017-04-13T01:30:28.345Z,10.70
2017-04-13T01:31:29.775Z,10.81
2017-04-13T01:32:32.601Z,10.83
2017-04-13T01:33:34.029Z,10.92
2017-04-13T01:34:35.449Z,10.81
2017-04-13T01:35:36.878Z,10.98
2017-04-13T01:36:38.297Z,10.89
2017-04-13T01:37:39.728Z,10.81
2017-04-13T01:38:41.159Z,10.78
2017-04-13T01:39:42.592Z,10.71
2017-04-13T01:40:44.017Z,10.78
2017-04-13T01:41:45.437Z,10.78
2017-04-13T01:42:46.872Z,10.84
2017-04-13T01:43:48.297Z,10.76
2017-04-13T01:44:49.720Z,10.98
2017-04-13T01:45:51.144Z,10.96
2017-04-13T01:46:52.571Z,10.92
2017-04-13T01:47:53.996Z,10.91
2017-04-13T01:48:55.428Z,10.76
2017-04-13T01:49:56.867Z,10.84
2017-04-13T01:50:58.291Z,10.73
2017-04-13T01:51:59.712Z,10.66
2017-04-13T01:53:01.217Z,10.70
2017-04-13T01:54:02.640Z,10.71
2017-04-13T01:55:04.065Z,10.73
2017-04-13T01:56:05.486Z,10.70
2017-04-13T01:57:06.915Z,10.76
2017-04-13T01:58:08.419Z,10.78
2017-04-13T01:59:09.841Z,10.53
2017-04-13T02:00:11.267Z,10.59
2017-04-13T02:01:12.757Z,10.65
2017-04-13T02:02:14.191Z,10.78
2017-04-13T02:03:15.619Z,10.83
2017-04-13T02:04:17.133Z,10.62
2017-04-13T02:05:18.599Z,10.78
2017-04-13T02:06:20.033Z,10.74
2017-04-13T02:07:21.461Z,10.96
2017-04-13T02:08:22.889Z,10.71
2017-04-13T02:09:25.304Z,10.83
2017-04-13T02:10:26.780Z,10.70
2017-04-13T02:11:28.211Z,10.63
2017-04-13T02:12:29.630Z,10.77
2017-04-13T02:13:31.064Z,10.68
2017-04-13T02:14:32.484Z,10.68
2017-04-13T02:15:33.909Z,10.83
2017-04-13T02:16:35.338Z,10.77
2017-04-13T02:17:36.812Z,10.70
2017-04-13T02:18:38.238Z,10.63
2017-04-13T02:19:39.657Z,10.62
2017-04-13T02:20:41.104Z,10.66
2017-04-13T02:21:42.631Z,10.51
2017-04-13T02:22:44.065Z,10.42
2017-04-13T02:23:45.487Z,10.36
2017-04-13T02:24:46.983Z,10.53
2017-04-13T02:25:48.417Z,10.52
2017-04-13T02:26:49.837Z,10.51
2017-04-13T02:27:51.270Z,10.52
2017-04-13T02:28:52.688Z,10.51
2017-04-13T02:29:54.129Z,10.22
2017-04-13T02:30:55.545Z,10.33
2017-04-13T02:31:56.974Z,10.40
2017-04-13T02:32:58.404Z,10.32
2017-04-13T02:33:59.831Z,10.34
2017-04-13T02:35:01.260Z,10.42
2017-04-13T02:36:02.689Z,10.36
2017-04-13T02:37:04.127Z,10.39
2017-04-13T02:38:06.138Z,10.28
2017-04-13T02:39:07.568Z,10.42
2017-04-13T02:40:08.993Z,10.36
2017-04-13T02:41:10.431Z,10.30
2017-04-13T02:42:11.868Z,10.34
2017-04-13T02:43:13.295Z,10.39
2017-04-13T02:44:14.726Z,10.52
2017-04-13T02:45:16.160Z,10.51
2017-04-13T02:46:17.603Z,10.56
2017-04-13T02:47:20.068Z,10.53
2017-04-13T02:48:21.503Z,10.56
2017-04-13T02:49:22.935Z,10.55
2017-04-13T02:50:24.362Z,10.42
2017-04-13T02:51:25.782Z,10.51
2017-04-13T02:52:27.214Z,10.55
2017-04-13T02:53:28.638Z,10.56
2017-04-13T02:54:30.061Z,10.53
2017-04-13T02:55:31.490Z,10.52
2017-04-13T02:56:32.914Z,10.55
2017-04-13T02:57:34.337Z,10.55
2017-04-13T02:58:35.767Z,10.42
2017-04-13T02:59:37.202Z,10.44
2017-04-13T03:00:38.623Z,10.42
2017-04-13T03:01:40.050Z,10.52
2017-04-13T03:02:41.475Z,10.46
2017-04-13T03:03:42.901Z,10.40
2017-04-13T03:04:44.338Z,10.52
2017-04-13T03:05:45.768Z,10.42
2017-04-13T03:06:47.191Z,10.59
2017-04-13T03:07:48.622Z,10.55
2017-04-13T03:08:50.052Z,10.46
2017-04-13T03:09:51.481Z,10.51
2017-04-13T03:10:52.921Z,10.62
2017-04-13T03:11:54.360Z,10.56
2017-04-13T03:12:55.784Z,10.56
2017-04-13T03:13:57.211Z,10.55
2017-04-13T03:14:58.645Z,10.56
2017-04-13T03:16:00.069Z,10.58
2017-04-13T03:17:01.497Z,10.52
2017-04-13T03:18:02.930Z,10.51
2017-04-13T03:19:04.357Z,10.53
2017-04-13T03:20:05.783Z,10.42
2017-04-13T03:21:07.218Z,10.51
2017-04-13T03:22:08.643Z,10.63
2017-04-13T03:23:10.070Z,10.47
2017-04-13T03:24:11.499Z,10.52
2017-04-13T03:25:12.926Z,10.39
2017-04-13T03:26:14.398Z,10.53
2017-04-13T03:27:15.788Z,10.52
2017-04-13T03:28:17.207Z,10.52
2017-04-13T03:29:18.635Z,10.40
2017-04-13T03:30:20.056Z,10.51
2017-04-13T03:31:21.482Z,10.51
2017-04-13T03:32:22.915Z,10.32
2017-04-13T03:33:24.340Z,10.36
2017-04-13T03:34:25.771Z,10.52
2017-04-13T03:35:27.196Z,10.55
2017-04-13T03:36:28.625Z,10.56
2017-04-13T03:37:30.049Z,10.51
2017-04-13T03:38:31.476Z,10.51
2017-04-13T03:39:32.906Z,10.52
2017-04-13T03:40:34.333Z,10.44
2017-04-13T03:41:35.759Z,10.51
2017-04-13T03:42:37.189Z,10.68
2017-04-13T03:43:38.614Z,10.68
2017-04-13T03:44:40.597Z,10.63
2017-04-13T03:45:42.034Z,10.55
2017-04-13T03:46:43.461Z,10.66
2017-04-13T03:47:44.889Z,10.53
2017-04-13T03:48:46.322Z,10.47
2017-04-13T03:49:47.748Z,10.40
2017-04-13T03:50:49.206Z,10.43
2017-04-13T03:51:50.674Z,10.33
2017-04-13T03:52:52.102Z,10.39
2017-04-13T03:53:53.534Z,10.42
2017-04-13T03:54:54.962Z,10.39
2017-04-13T03:55:56.382Z,10.43
2017-04-13T03:56:57.814Z,10.33
2017-04-13T03:57:59.244Z,10.40
2017-04-13T03:59:00.709Z,10.36
2017-04-13T04:00:02.099Z,10.37
2017-04-13T04:01:03.523Z,10.33
2017-04-13T04:02:04.957Z,10.32
2017-04-13T04:03:06.385Z,10.40
2017-04-13T04:04:07.810Z,10.30
2017-04-13T04:05:09.238Z,10.33
2017-04-13T04:06:10.658Z,10.33
2017-04-13T04:07:12.077Z,10.43
2017-04-13T04:08:13.509Z,10.58
2017-04-13T04:09:16.283Z,10.65
2017-04-13T04:10:17.710Z,10.53
2017-04-13T04:11:19.136Z,10.66
2017-04-13T04:12:20.567Z,10.62
2017-04-13T04:13:21.996Z,10.51
2017-04-13T04:14:23.423Z,10.56
2017-04-13T04:15:24.846Z,10.53
2017-04-13T04:16:26.278Z,10.53
2017-04-13T04:17:27.714Z,10.52
2017-04-13T04:18:29.134Z,10.40
2017-04-13T04:19:30.556Z,10.56
2017-04-13T04:20:31.988Z,10.44
2017-04-13T04:21:33.414Z,10.44
2017-04-13T04:22:34.919Z,10.36
2017-04-13T04:23:36.348Z,10.39
2017-04-13T04:24:37.768Z,10.37
2017-04-13T04:25:39.230Z,10.30
2017-04-13T04:26:40.626Z,10.28
2017-04-13T04:27:42.053Z,10.28
2017-04-13T04:28:43.479Z,10.28
2017-04-13T04:29:44.906Z,10.19
2017-04-13T04:30:46.338Z,10.19
2017-04-13T04:31:47.761Z,10.22
2017-04-13T04:32:49.189Z,10.34
2017-04-13T04:33:50.614Z,10.17
2017-04-13T04:34:52.050Z,10.10
2017-04-13T04:35:53.479Z,9.91
2017-04-13T04:36:54.913Z,10.04
2017-04-13T04:37:56.343Z,10.06
2017-04-13T04:38:57.773Z,10.10
2017-04-13T04:39:59.210Z,10.10
2017-04-13T04:41:00.643Z,10.00
2017-04-13T04:42:02.065Z,10.04
2017-04-13T04:43:03.496Z,9.99
2017-04-13T04:44:04.925Z,9.96
2017-04-13T04:45:06.349Z,9.97
2017-04-13T04:46:07.780Z,9.96
2017-04-13T04:47:09.212Z,10.01
2017-04-13T04:48:10.639Z,9.71
2017-04-13T04:49:12.932Z,9.81
2017-04-13T04:50:14.367Z,9.83
2017-04-13T04:51:15.792Z,10.06
2017-04-13T04:52:17.219Z,10.07
2017-04-13T04:53:18.645Z,10.04
2017-04-13T04:54:20.072Z,10.15
2017-04-13T04:55:21.501Z,9.96
2017-04-13T04:56:22.929Z,10.06
2017-04-13T04:57:24.356Z,10.12
2017-04-13T04:58:25.785Z,10.24
2017-04-13T04:59:27.211Z,10.21
2017-04-13T05:00:28.646Z,10.24
2017-04-13T05:01:30.083Z,10.04
2017-04-13T05:02:31.508Z,10.22
2017-04-13T05:03:32.929Z,10.07
2017-04-13T05:04:34.366Z,10.25
2017-04-13T05:05:35.793Z,10.22
2017-04-13T05:06:37.226Z,10.34
2017-04-13T05:07:38.661Z,10.30
2017-04-13T05:08:40.093Z,10.21
2017-04-13T05:09:41.524Z,10.18
2017-04-13T05:10:42.951Z,10.28
2017-04-13T05:11:44.381Z,10.17
2017-04-13T05:12:45.811Z,10.21
2017-04-13T05:13:47.241Z,10.17
2017-04-13T05:14:48.676Z,10.17
2017-04-13T05:15:50.100Z,10.22
2017-04-13T05:16:51.526Z,10.22
2017-04-13T05:17:52.962Z,10.22
2017-04-13T05:18:55.085Z,10.22
2017-04-13T05:19:56.513Z,10.39
2017-04-13T05:20:57.944Z,10.30
2017-04-13T05:21:59.370Z,10.32
2017-04-13T05:23:00.818Z,10.43
2017-04-13T05:24:02.249Z,10.59
2017-04-13T05:25:03.679Z,10.58
2017-04-13T05:26:05.147Z,10.56
2017-04-13T05:27:06.534Z,10.39
2017-04-13T05:28:07.961Z,10.55
2017-04-13T05:29:09.387Z,10.43
2017-04-13T05:30:10.815Z,10.47
2017-04-13T05:31:12.248Z,10.55
2017-04-13T05:32:13.679Z,10.55
2017-04-13T05:33:15.107Z,10.43
2017-04-13T05:34:16.531Z,10.51
2017-04-13T05:35:17.962Z,10.46
2017-04-13T05:36:19.395Z,10.47
2017-04-13T05:37:20.825Z,10.63
2017-04-13T05:38:22.255Z,10.68
2017-04-13T05:39:23.682Z,10.70
2017-04-13T05:40:25.116Z,10.80
2017-04-13T05:41:26.555Z,10.65
2017-04-13T05:42:27.987Z,10.55
2017-04-13T05:43:29.413Z,10.65
2017-04-13T05:44:30.850Z,10.68
2017-04-13T05:45:32.276Z,10.63
2017-04-13T05:46:33.706Z,10.66
2017-04-13T05:47:35.139Z,10.78
2017-04-13T05:48:36.565Z,10.78
2017-04-13T05:49:37.990Z,10.63
2017-04-13T05:50:39.425Z,10.70
2017-04-13T05:51:40.850Z,10.76
2017-04-13T05:52:42.287Z,10.83
2017-04-13T05:53:43.712Z,10.76
2017-04-13T05:54:45.140Z,10.74
2017-04-13T05:55:46.568Z,10.83
2017-04-13T05:56:48.003Z,10.77
2017-04-13T05:57:49.434Z,10.65
2017-04-13T05:58:50.860Z,10.68
2017-04-13T05:59:52.285Z,10.66
2017-04-13T06:00:53.707Z,10.73
2017-04-13T06:01:55.135Z,10.74
2017-04-13T06:02:56.571Z,10.78
2017-04-13T06:03:58.003Z,11.03
2017-04-13T06:04:59.428Z,10.89
2017-04-13T06:06:00.859Z,11.01
2017-04-13T06:07:02.285Z,10.95
2017-04-13T06:08:03.717Z,11.03
2017-04-13T06:09:05.149Z,11.13
2017-04-13T06:10:06.583Z,11.19
2017-04-13T06:11:08.027Z,11.13
2017-04-13T06:12:09.453Z,11.29
2017-04-13T06:13:10.894Z,11.21
2017-04-13T06:14:12.349Z,11.24
2017-04-13T06:15:13.773Z,11.31
2017-04-13T06:16:15.213Z,11.16
2017-04-13T06:17:16.638Z,11.17
2017-04-13T06:18:18.073Z,11.27
2017-04-13T06:19:19.549Z,11.11
2017-04-13T06:20:21.042Z,11.17
2017-04-13T06:21:22.484Z,11.16
2017-04-13T06:22:23.916Z,11.31
2017-04-13T06:23:25.338Z,11.13
2017-04-13T06:24:26.871Z,11.21
2017-04-13T06:25:28.299Z,11.16
2017-04-13T06:26:29.737Z,11.32
2017-04-13T06:27:31.167Z,11.46
2017-04-13T06:28:32.598Z,11.44
2017-04-13T06:29:34.029Z,11.36
2017-04-13T06:30:35.467Z,11.17
2017-04-13T06:31:36.896Z,11.29
2017-04-13T06:32:38.338Z,11.34
2017-04-13T06:33:39.766Z,11.16
2017-04-13T06:34:41.206Z,11.13
2017-04-13T06:35:42.682Z,11.16
2017-04-13T06:36:44.109Z,11.32
2017-04-13T06:37:45.544Z,11.14
2017-04-13T06:38:46.979Z,11.17
2017-04-13T06:39:48.442Z,11.20
2017-04-13T06:40:49.879Z,11.27
2017-04-13T06:41:51.304Z,11.53
2017-04-13T06:42:52.820Z,11.32
2017-04-13T06:43:54.255Z,11.14
2017-04-13T06:44:55.687Z,11.11
2017-04-13T06:45:57.124Z,11.06
2017-04-13T06:46:58.551Z,11.11
2017-04-13T06:47:59.996Z,11.27
2017-04-13T06:49:01.431Z,11.31
2017-04-13T06:50:02.849Z,11.34
2017-04-13T06:51:04.283Z,11.43
2017-04-13T06:52:05.712Z,11.43
2017-04-13T06:53:07.144Z,11.43
2017-04-13T06:54:08.574Z,11.46
2017-04-13T06:55:10.026Z,11.50
2017-04-13T06:56:12.185Z,11.57
2017-04-13T06:57:13.609Z,11.56
2017-04-13T06:58:15.050Z,11.53
2017-04-13T06:59:17.168Z,11.31
2017-04-13T07:00:19.460Z,11.39
2017-04-13T07:01:20.897Z,11.39
2017-04-13T07:02:22.329Z,11.57
2017-04-13T07:03:23.772Z,11.61
2017-04-13T07:04:25.199Z,11.65
2017-04-13T07:05:26.632Z,11.54
2017-04-13T07:06:28.066Z,11.35
2017-04-13T07:07:29.510Z,11.52
2017-04-13T07:08:30.937Z,11.50
2017-04-13T07:09:32.371Z,11.70
2017-04-13T07:10:33.802Z,11.68
2017-04-13T07:11:35.231Z,11.70
2017-04-13T07:12:36.666Z,11.71
2017-04-13T07:13:38.099Z,11.50
2017-04-13T07:14:39.526Z,11.52
2017-04-13T07:15:41.009Z,11.50
2017-04-13T07:16:42.434Z,11.49
2017-04-13T07:17:43.879Z,11.52
2017-04-13T07:18:45.297Z,11.53
2017-04-13T07:19:46.727Z,11.64
2017-04-13T07:20:48.157Z,11.62
2017-04-13T07:21:49.595Z,11.31
2017-04-13T07:22:51.099Z,11.56
2017-04-13T07:23:52.535Z,11.70
2017-04-13T07:24:53.962Z,11.82
2017-04-13T07:25:55.394Z,11.64
2017-04-13T07:26:56.856Z,11.61
2017-04-13T07:27:58.327Z,11.57
2017-04-13T07:28:59.718Z,11.70
2017-04-13T07:30:01.169Z,11.52
2017-04-13T07:31:02.665Z,11.64
2017-04-13T07:32:04.101Z,11.57
2017-04-13T07:33:05.535Z,11.74
2017-04-13T07:34:06.981Z,11.57
2017-04-13T07:35:08.414Z,11.78
2017-04-13T07:36:09.843Z,11.87
2017-04-13T07:37:11.272Z,11.90
2017-04-13T07:38:12.714Z,11.80
2017-04-13T07:39:14.145Z,11.90
2017-04-13T07:40:15.574Z,11.67
2017-04-13T07:41:17.093Z,11.61
2017-04-13T07:42:18.528Z,11.53
2017-04-13T07:43:19.961Z,11.59
2017-04-13T07:44:21.393Z,11.64
2017-04-13T07:45:22.825Z,11.64
2017-04-13T07:46:24.257Z,11.59
2017-04-13T07:47:25.710Z,11.64
2017-04-13T07:48:27.139Z,11.87
2017-04-13T07:49:28.668Z,11.77
2017-04-13T07:50:30.101Z,11.82
2017-04-13T07:51:31.535Z,12.12
2017-04-13T07:52:32.968Z,11.93
2017-04-13T07:53:34.396Z,11.78
2017-04-13T07:54:35.833Z,11.64
2017-04-13T07:55:37.266Z,11.87
2017-04-13T07:56:38.699Z,11.80
2017-04-13T07:57:40.128Z,11.80
2017-04-13T07:58:41.565Z,11.90
2017-04-13T07:59:42.994Z,11.77
2017-04-13T08:00:44.425Z,11.89
2017-04-13T08:01:45.857Z,11.62
2017-04-13T08:02:47.294Z,11.64
2017-04-13T08:03:48.736Z,11.72
2017-04-13T08:04:50.179Z,11.74
2017-04-13T08:05:51.615Z,11.75
2017-04-13T08:06:53.045Z,11.89
2017-04-13T08:07:55.141Z,11.97
2017-04-13T08:08:56.579Z,11.72
2017-04-13T08:09:58.018Z,11.86
2017-04-13T08:10:59.455Z,11.78
2017-04-13T08:12:00.886Z,11.85
2017-04-13T08:13:02.311Z,12.01
2017-04-13T08:14:03.743Z,11.82
2017-04-13T08:15:05.173Z,11.64
2017-04-13T08:16:07.511Z,11.64
2017-04-13T08:17:08.950Z,11.50
2017-04-13T08:18:10.380Z,11.47
2017-04-13T08:19:11.813Z,11.43
2017-04-13T08:20:13.237Z,11.41
2017-04-13T08:21:14.684Z,11.56
2017-04-13T08:22:16.118Z,11.54
2017-04-13T08:23:17.547Z,11.62
2017-04-13T08:24:18.974Z,11.64
2017-04-13T08:25:20.405Z,11.83
2017-04-13T08:26:21.851Z,11.94
2017-04-13T08:27:23.282Z,11.72
2017-04-13T08:28:24.713Z,11.99
2017-04-13T08:29:26.143Z,12.19
2017-04-13T08:30:27.577Z,12.04
2017-04-13T08:31:29.012Z,12.16
2017-04-13T08:32:30.454Z,12.39
2017-04-13T08:33:31.889Z,12.30
2017-04-13T08:34:33.330Z,12.34
2017-04-13T08:35:34.760Z,12.31
2017-04-13T08:36:36.194Z,12.48
2017-04-13T08:37:37.629Z,12.71
2017-04-13T08:38:39.067Z,12.84
2017-04-13T08:39:40.499Z,12.79
2017-04-13T08:40:41.937Z,12.75
2017-04-13T08:41:43.365Z,13.07
2017-04-13T08:42:44.800Z,13.02
2017-04-13T08:43:46.236Z,12.93
2017-04-13T08:44:47.665Z,13.00
2017-04-13T08:45:49.106Z,13.09
2017-04-13T08:46:50.558Z,13.00
2017-04-13T08:47:52.938Z,13.07
2017-04-13T08:48:54.375Z,12.99
2017-04-13T08:49:55.819Z,13.12
2017-04-13T08:50:57.852Z,13.21
2017-04-13T08:51:59.286Z,12.99
2017-04-13T08:53:00.727Z,12.77
2017-04-13T08:54:02.166Z,12.89
2017-04-13T08:55:03.602Z,13.20
2017-04-13T08:56:05.047Z,13.11
2017-04-13T08:57:06.487Z,13.00
2017-04-13T08:58:07.922Z,12.96
2017-04-13T08:59:09.353Z,12.99
2017-04-13T09:00:10.780Z,13.22
2017-04-13T09:01:12.765Z,13.24
2017-04-13T09:02:14.196Z,13.17
2017-04-13T09:03:15.633Z,13.17
2017-04-13T09:04:17.069Z,13.00
2017-04-13T09:05:18.511Z,12.99
2017-04-13T09:06:19.945Z,13.02
2017-04-13T09:07:21.379Z,12.85
2017-04-13T09:08:22.816Z,12.77
2017-04-13T09:09:24.824Z,12.81
2017-04-13T09:10:26.257Z,12.87
2017-04-13T09:11:27.698Z,12.92
2017-04-13T09:12:29.145Z,12.78
2017-04-13T09:13:30.569Z,12.84
2017-04-13T09:14:32.005Z,12.81
2017-04-13T09:15:33.436Z,12.77
2017-04-13T09:16:34.877Z,12.87
2017-04-13T09:17:36.306Z,12.45
2017-04-13T09:18:37.743Z,12.42
2017-04-13T09:19:39.176Z,12.19
2017-04-13T09:20:40.604Z,12.31
2017-04-13T09:21:42.049Z,12.46
2017-04-13T09:22:43.472Z,12.31
2017-04-13T09:23:44.908Z,12.21
2017-04-13T09:24:46.337Z,12.15
2017-04-13T09:25:47.768Z,12.12
2017-04-13T09:26:49.194Z,12.23
2017-04-13T09:27:50.640Z,12.05
2017-04-13T09:28:52.054Z,12.11
2017-04-13T09:29:53.494Z,12.08
2017-04-13T09:30:54.914Z,11.99
2017-04-13T09:31:56.354Z,11.86
2017-04-13T09:32:57.783Z,11.71
2017-04-13T09:33:59.214Z,11.82
2017-04-13T09:35:00.647Z,11.75
2017-04-13T09:36:02.075Z,11.96
2017-04-13T09:37:03.507Z,11.83
2017-04-13T09:38:05.927Z,11.85
2017-04-13T09:39:07.365Z,11.89
2017-04-13T09:40:08.806Z,11.78
2017-04-13T09:41:10.236Z,11.80
2017-04-13T09:42:11.675Z,11.96
2017-04-13T09:43:13.119Z,11.77
2017-04-13T09:44:14.555Z,12.13
2017-04-13T09:45:15.985Z,11.89
2017-04-13T09:46:17.415Z,12.01
2017-04-13T09:47:18.850Z,12.06
2017-04-13T09:48:20.277Z,12.13
2017-04-13T09:49:21.707Z,12.15
2017-04-13T09:50:23.137Z,12.23
2017-04-13T09:51:24.576Z,12.45
2017-04-13T09:52:26.006Z,12.59
2017-04-13T09:53:27.435Z,12.52
2017-04-13T09:54:28.866Z,12.77
2017-04-13T09:55:30.303Z,12.74
2017-04-13T09:56:31.735Z,12.67
2017-04-13T09:57:33.177Z,12.78
2017-04-13T09:58:34.607Z,13.20
2017-04-13T09:59:36.034Z,13.20
2017-04-13T10:00:38.345Z,12.96
2017-04-13T10:01:39.777Z,12.97
2017-04-13T10:02:41.262Z,13.20
2017-04-13T10:03:42.686Z,13.18
2017-04-13T10:04:44.138Z,13.29
2017-04-13T10:05:45.570Z,13.11
2017-04-13T10:06:47.000Z,13.11
2017-04-13T10:07:48.448Z,13.22
2017-04-13T10:08:49.881Z,13.36
2017-04-13T10:09:51.317Z,13.59
2017-04-13T10:10:52.792Z,13.52
2017-04-13T10:11:54.234Z,13.55
2017-04-13T10:12:55.664Z,13.55
2017-04-13T10:13:57.757Z,13.62
2017-04-13T10:14:59.202Z,13.55
2017-04-13T10:16:00.630Z,13.46
2017-04-13T10:17:02.054Z,13.63
2017-04-13T10:18:03.496Z,13.83
2017-04-13T10:19:04.927Z,13.69
2017-04-13T10:20:06.366Z,13.67
2017-04-13T10:21:07.795Z,13.40
2017-04-13T10:22:09.225Z,13.40
2017-04-13T10:23:10.665Z,13.07
2017-04-13T10:24:12.096Z,13.04
2017-04-13T10:25:13.539Z,12.77
2017-04-13T10:26:14.968Z,12.70
2017-04-13T10:27:16.398Z,12.92
2017-04-13T10:28:17.841Z,12.71
2017-04-13T10:29:19.278Z,12.81
2017-04-13T10:30:20.706Z,12.54
2017-04-13T10:31:22.143Z,12.33
2017-04-13T10:32:23.578Z,12.44
2017-04-13T10:33:25.004Z,12.30
2017-04-13T10:34:26.435Z,12.31
2017-04-13T10:35:27.864Z,12.27
2017-04-13T10:36:29.296Z,12.21
2017-04-13T10:37:30.728Z,12.19
2017-04-13T10:38:32.168Z,12.38
2017-04-13T10:39:33.615Z,12.34
2017-04-13T10:40:35.035Z,12.31
2017-04-13T10:41:36.483Z,12.31
2017-04-13T10:42:37.916Z,12.37
2017-04-13T10:43:39.366Z,12.34
2017-04-13T10:44:40.799Z,12.21
2017-04-13T10:45:42.237Z,12.29
2017-04-13T10:46:43.665Z,12.33
2017-04-13T10:47:45.103Z,12.49
2017-04-13T10:48:46.528Z,12.23
2017-04-13T10:49:47.961Z,12.16
2017-04-13T10:50:49.508Z,12.16
2017-04-13T10:51:50.942Z,12.09
2017-04-13T10:52:52.384Z,12.19
2017-04-13T10:53:53.812Z,12.29
2017-04-13T10:54:55.243Z,12.06
2017-04-13T10:55:56.693Z,11.97
2017-04-13T10:56:58.128Z,12.04
2017-04-13T10:57:59.574Z,12.31
2017-04-13T10:59:01.006Z,12.33
2017-04-13T11:00:02.442Z,12.49
2017-04-13T11:01:03.876Z,12.66
2017-04-13T11:02:05.306Z,12.84
2017-04-13T11:03:06.738Z,12.95
2017-04-13T11:04:08.182Z,13.00
2017-04-13T11:05:09.619Z,13.21
2017-04-13T11:06:11.046Z,13.36
2017-04-13T11:07:12.479Z,12.95
2017-04-13T11:08:13.915Z,13.20
2017-04-13T11:09:17.520Z,13.22
2017-04-13T11:10:18.951Z,13.17
2017-04-13T11:11:20.391Z,12.96
2017-04-13T11:12:21.820Z,13.00
2017-04-13T11:13:23.265Z,12.92
2017-04-13T11:14:24.693Z,12.97
2017-04-13T11:15:26.125Z,12.82
2017-04-13T11:16:27.560Z,12.71
2017-04-13T11:17:28.986Z,12.66
2017-04-13T11:18:30.415Z,12.57
2017-04-13T11:19:31.847Z,12.82
2017-04-13T11:20:33.283Z,12.97
2017-04-13T11:21:34.720Z,12.96
2017-04-13T11:22:36.150Z,13.14
2017-04-13T11:23:37.585Z,13.04
2017-04-13T11:24:39.012Z,13.04
2017-04-13T11:25:40.455Z,13.03
2017-04-13T11:26:41.884Z,13.00
2017-04-13T11:27:43.312Z,13.00
2017-04-13T11:28:44.750Z,12.93
2017-04-13T11:29:46.189Z,13.11
2017-04-13T11:30:47.614Z,13.32
2017-04-13T11:31:49.058Z,13.37
2017-04-13T11:32:50.486Z,13.46
2017-04-13T11:33:51.930Z,13.30
2017-04-13T11:34:53.368Z,13.09
2017-04-13T11:35:54.795Z,13.17
2017-04-13T11:36:56.241Z,13.41
2017-04-13T11:37:57.683Z,13.70
2017-04-13T11:38:59.118Z,13.61
2017-04-13T11:40:00.556Z,13.73
2017-04-13T11:41:01.991Z,13.74
2017-04-13T11:42:03.435Z,13.89
2017-04-13T11:43:04.868Z,13.73
2017-04-13T11:44:06.314Z,13.69
2017-04-13T11:45:07.749Z,14.02
2017-04-13T11:46:09.177Z,14.21
2017-04-13T11:47:10.617Z,14.24
2017-04-13T11:48:12.049Z,14.12
2017-04-13T11:49:13.491Z,14.27
2017-04-13T11:50:14.927Z,14.50
2017-04-13T11:51:16.368Z,14.34
2017-04-13T11:52:17.808Z,14.16
2017-04-13T11:53:19.248Z,14.14
2017-04-13T11:54:20.687Z,14.29
2017-04-13T11:55:22.129Z,14.47
2017-04-13T11:56:23.567Z,14.27
2017-04-13T11:57:25.009Z,14.13
2017-04-13T11:58:26.447Z,14.09
2017-04-13T11:59:27.880Z,13.84
2017-04-13T12:00:29.313Z,13.87
2017-04-13T12:01:30.748Z,13.92
2017-04-13T12:02:32.178Z,13.87
2017-04-13T12:03:33.603Z,13.80
2017-04-13T12:04:35.075Z,13.88
2017-04-13T12:05:37.275Z,13.62
2017-04-13T12:06:38.706Z,13.61
2017-04-13T12:07:40.140Z,13.77
2017-04-13T12:08:41.585Z,13.92
2017-04-13T12:09:43.018Z,13.98
2017-04-13T12:10:45.391Z,14.07
2017-04-13T12:11:46.827Z,13.89
2017-04-13T12:12:48.269Z,13.91
2017-04-13T12:13:49.709Z,14.12
2017-04-13T12:14:51.144Z,14.13
2017-04-13T12:15:52.583Z,14.13
2017-04-13T12:16:54.011Z,13.84
2017-04-13T12:17:55.451Z,14.01
2017-04-13T12:18:56.894Z,13.88
2017-04-13T12:19:58.339Z,14.01
2017-04-13T12:20:59.778Z,13.95
2017-04-13T12:22:01.216Z,13.95
2017-04-13T12:23:02.648Z,13.91
2017-04-13T12:24:04.091Z,13.87
2017-04-13T12:25:05.522Z,13.81
2017-04-13T12:26:06.967Z,14.17
2017-04-13T12:27:08.399Z,13.94
2017-04-13T12:28:09.832Z,13.96
2017-04-13T12:29:11.996Z,13.95
2017-04-13T12:30:13.435Z,13.88
2017-04-13T12:31:14.870Z,13.98
2017-04-13T12:32:16.303Z,14.06
2017-04-13T12:33:17.736Z,14.13
2017-04-13T12:34:19.196Z,14.24
2017-04-13T12:35:20.627Z,14.52
2017-04-13T12:36:22.067Z,14.32
2017-04-13T12:37:24.482Z,14.14
2017-04-13T12:38:25.908Z,14.29
2017-04-13T12:39:27.351Z,14.02
2017-04-13T12:40:28.788Z,13.98
2017-04-13T12:41:30.227Z,13.96
2017-04-13T12:42:31.669Z,13.94
2017-04-13T12:43:33.118Z,13.76
2017-04-13T12:44:34.547Z,13.89
2017-04-13T12:45:35.980Z,13.67
2017-04-13T12:46:37.416Z,13.61
2017-04-13T12:47:38.850Z,13.49
2017-04-13T12:48:40.282Z,13.43
2017-04-13T12:49:41.718Z,13.32
2017-04-13T12:50:43.154Z,13.46
2017-04-13T12:51:44.589Z,13.51
2017-04-13T12:52:46.021Z,13.58
2017-04-13T12:53:47.455Z,13.56
2017-04-13T12:54:48.888Z,13.71
2017-04-13T12:55:50.321Z,13.55
2017-04-13T12:56:51.772Z,13.55
2017-04-13T12:57:53.196Z,13.51
2017-04-13T12:58:54.622Z,13.51
2017-04-13T12:59:56.057Z,13.49
2017-04-13T13:00:57.493Z,13.63
2017-04-13T13:01:58.943Z,13.70
2017-04-13T13:03:00.359Z,13.77
2017-04-13T13:04:01.805Z,13.71
2017-04-13T13:05:03.245Z,13.69
2017-04-13T13:06:04.686Z,13.55
2017-04-13T13:07:06.122Z,13.44
2017-04-13T13:08:07.561Z,13.43
2017-04-13T13:09:08.990Z,13.79
2017-04-13T13:10:10.425Z,13.87
2017-04-13T13:11:11.864Z,13.67